Time;durP1;ratioP1;P1;durP2;ratioP2;P2;SDS_P1;SDS_P2;PMS_P1;PMS_P2;Temp;Humidity;BMP_temperature;BMP_pressure;BME280_temperature;BME280_humidity;BME280_pressure;Samples;Min_cycle;Max_cycle;Signal;HPM_P1;HPM_P2
2021/12/28 00:00:20;;;;;;;;;;;10.10;99.90;;;;;;5027503;28;20376;-73
2021/12/28 00:02:49;;;;;;;;;;;10.20;99.90;;;;;;5025313;28;20313;-73
2021/12/28 00:05:17;;;;;;;;;;;10.20;99.90;;;;;;5023510;28;19947;-73
2021/12/28 00:07:45;;;;;;;;;;;10.20;99.90;;;;;;5003589;28;19932;-73
2021/12/28 00:10:14;;;;;;;;;;;10.20;99.90;;;;;;5004880;28;19925;-73
2021/12/28 00:12:41;;;;;;;;;;;10.20;99.90;;;;;;4988119;28;19993;-73
2021/12/28 00:18:03;;;;;;;;;;;10.20;99.90;;;;;;5009256;28;20377;-73
2021/12/28 00:20:32;;;;;;;;;;;10.10;99.90;;;;;;5024878;28;19931;-73
2021/12/28 00:23:01;;;;;;;;;;;10.00;99.90;;;;;;5026875;28;19925;-72
2021/12/28 00:25:28;;;;;;;;;;;10.00;99.90;;;;;;5027248;28;19921;-73
2021/12/28 00:27:55;;;;;;;;;;;10.00;99.90;;;;;;5026811;28;19925;-72
2021/12/28 00:30:23;;;;;;;;;;;10.00;99.90;;;;;;5026588;28;19921;-72
2021/12/28 00:32:56;;;;;;;;;;;10.00;99.90;;;;;;5027067;28;19921;-72
2021/12/28 00:35:25;;;;;;;;;;;10.00;99.90;;;;;;5025333;28;19932;-72
2021/12/28 00:37:53;;;;;;;;;;;10.10;99.90;;;;;;5026679;28;19925;-73
2021/12/28 00:40:20;;;;;;;;;;;10.10;99.90;;;;;;5058052;28;19925;-73
2021/12/28 00:42:48;;;;;;;;;;;10.10;99.90;;;;;;5025285;28;19932;-72
2021/12/28 00:45:16;;;;;;;;;;;10.20;99.90;;;;;;5058524;28;19924;-72
2021/12/28 00:47:44;;;;;;;;;;;10.10;99.90;;;;;;5041992;28;19928;-72
2021/12/28 00:50:12;;;;;;;;;;;10.20;99.90;;;;;;5057916;28;20293;-72
2021/12/28 00:52:40;;;;;;;;;;;10.20;99.90;;;;;;5026809;28;19925;-72
2021/12/28 00:55:08;;;;;;;;;;;10.20;99.90;;;;;;5058177;28;19925;-74
2021/12/28 00:57:36;;;;;;;;;;;10.20;99.90;;;;;;5025053;28;19921;-73
2021/12/28 01:00:05;;;;;;;;;;;10.20;99.90;;;;;;5021929;28;19928;-73
2021/12/28 01:02:32;;;;;;;;;;;10.20;99.90;;;;;;5005604;28;19937;-72
2021/12/28 01:05:00;;;;;;;;;;;10.20;99.90;;;;;;5037565;28;19941;-73
2021/12/28 01:07:28;;;;;;;;;;;10.20;99.90;;;;;;5038050;28;19948;-73
2021/12/28 01:09:55;;;;;;;;;;;10.20;99.90;;;;;;5005305;28;19925;-73
2021/12/28 01:12:23;;;;;;;;;;;10.10;99.90;;;;;;5006466;28;19933;-74
2021/12/28 01:14:51;;;;;;;;;;;10.10;99.90;;;;;;5005268;28;19928;-74
2021/12/28 01:17:18;;;;;;;;;;;10.10;99.90;;;;;;5005491;28;19922;-73
2021/12/28 01:19:46;;;;;;;;;;;10.10;99.90;;;;;;5021292;28;19921;-73
2021/12/28 01:22:13;;;;;;;;;;;10.10;99.90;;;;;;5005147;28;19921;-73
2021/12/28 01:24:41;;;;;;;;;;;10.10;99.90;;;;;;5006903;28;20684;-73
2021/12/28 01:27:08;;;;;;;;;;;10.10;99.90;;;;;;5005252;28;19921;-73
2021/12/28 01:29:36;;;;;;;;;;;10.00;99.90;;;;;;5004952;28;19921;-73
2021/12/28 01:32:03;;;;;;;;;;;10.00;99.90;;;;;;5026296;28;19943;-73
2021/12/28 01:34:31;;;;;;;;;;;10.10;99.90;;;;;;5025823;28;19944;-72
2021/12/28 01:36:58;;;;;;;;;;;10.10;99.90;;;;;;5054052;28;19932;-73
2021/12/28 01:39:26;;;;;;;;;;;10.20;99.90;;;;;;5008447;28;19928;-73
2021/12/28 01:41:54;;;;;;;;;;;10.20;99.90;;;;;;5027483;28;19925;-72
2021/12/28 01:44:22;;;;;;;;;;;10.20;99.90;;;;;;5029145;28;19928;-73
2021/12/28 01:46:49;;;;;;;;;;;10.20;99.90;;;;;;5030071;28;19925;-73
2021/12/28 01:49:17;;;;;;;;;;;10.20;99.90;;;;;;5061340;28;19925;-72
2021/12/28 01:51:45;;;;;;;;;;;10.30;99.90;;;;;;5030233;28;19936;-72
2021/12/28 01:54:13;;;;;;;;;;;10.30;99.90;;;;;;5028930;28;20309;-72
2021/12/28 01:56:44;;;;;;;;;;;10.30;99.90;;;;;;5061408;28;19952;-72
2021/12/28 01:59:13;;;;;;;;;;;10.30;99.90;;;;;;5027636;28;20406;-72
2021/12/28 02:01:41;;;;;;;;;;;10.40;99.90;;;;;;5043885;28;19926;-73
2021/12/28 02:04:13;;;;;;;;;;;10.40;99.90;;;;;;5009751;28;19925;-72
2021/12/28 02:06:41;;;;;;;;;;;10.50;99.90;;;;;;4986754;28;19921;-73
2021/12/28 02:09:09;;;;;;;;;;;10.50;99.90;;;;;;5029125;28;19925;-73
2021/12/28 02:11:37;;;;;;;;;;;10.50;99.90;;;;;;5029135;28;19925;-73
2021/12/28 02:14:08;;;;;;;;;;;10.50;99.90;;;;;;5029195;28;19932;-73
2021/12/28 02:16:38;;;;;;;;;;;10.50;99.90;;;;;;5029769;28;19921;-73
2021/12/28 02:19:07;;;;;;;;;;;10.50;99.90;;;;;;5027993;28;19921;-73
2021/12/28 02:21:35;;;;;;;;;;;10.50;99.90;;;;;;5060749;28;19932;-73
2021/12/28 02:24:04;;;;;;;;;;;10.50;99.90;;;;;;5029338;28;20113;-73
2021/12/28 02:26:31;;;;;;;;;;;10.50;99.90;;;;;;5028842;28;20745;-73
2021/12/28 02:28:59;;;;;;;;;;;10.60;99.90;;;;;;5029240;28;19932;-73
2021/12/28 02:31:27;;;;;;;;;;;10.60;99.90;;;;;;5024440;28;19928;-74
2021/12/28 02:33:54;;;;;;;;;;;10.60;99.90;;;;;;5009161;28;19932;-74
2021/12/28 02:36:22;;;;;;;;;;;10.60;99.90;;;;;;5008767;28;19932;-73
2021/12/28 02:38:49;;;;;;;;;;;10.60;99.90;;;;;;5040644;28;20301;-73
2021/12/28 02:41:17;;;;;;;;;;;10.70;99.90;;;;;;5008911;28;20401;-73
2021/12/28 02:43:48;;;;;;;;;;;10.70;99.90;;;;;;5009245;28;19925;-73
2021/12/28 02:46:16;;;;;;;;;;;10.70;99.90;;;;;;5041024;28;19949;-73
2021/12/28 02:48:44;;;;;;;;;;;10.70;99.90;;;;;;5040998;28;19964;-75
2021/12/28 02:51:13;;;;;;;;;;;10.70;99.90;;;;;;5041018;28;20293;-72
2021/12/28 02:53:41;;;;;;;;;;;10.70;99.90;;;;;;5006886;28;20364;-72
2021/12/28 02:56:09;;;;;;;;;;;10.70;99.90;;;;;;5009458;28;19922;-73
2021/12/28 02:58:38;;;;;;;;;;;10.70;99.90;;;;;;5041085;28;20369;-72
2021/12/28 03:01:06;;;;;;;;;;;10.70;99.90;;;;;;5021855;28;19925;-73
2021/12/28 03:03:34;;;;;;;;;;;10.70;99.90;;;;;;5027765;28;20393;-73
2021/12/28 03:06:04;;;;;;;;;;;10.60;99.90;;;;;;5024585;28;19936;-73
2021/12/28 03:08:32;;;;;;;;;;;10.60;99.90;;;;;;5024225;28;19928;-73
2021/12/28 03:11:01;;;;;;;;;;;10.50;99.90;;;;;;5009310;28;19996;-74
2021/12/28 03:13:30;;;;;;;;;;;10.40;99.90;;;;;;5009049;28;19944;-73
2021/12/28 03:15:57;;;;;;;;;;;10.40;99.90;;;;;;5009281;28;20389;-73
2021/12/28 03:18:25;;;;;;;;;;;10.40;99.90;;;;;;5008946;28;19932;-73
2021/12/28 03:20:53;;;;;;;;;;;10.40;99.90;;;;;;5007548;28;19925;-73
2021/12/28 03:23:21;;;;;;;;;;;10.40;99.90;;;;;;5011540;28;19933;-72
2021/12/28 03:25:49;;;;;;;;;;;10.40;99.90;;;;;;4991235;28;20473;-72
2021/12/28 03:28:18;;;;;;;;;;;10.40;99.90;;;;;;5007363;28;19925;-72
2021/12/28 03:30:46;;;;;;;;;;;10.40;99.90;;;;;;5018118;28;19921;-73
2021/12/28 03:33:13;;;;;;;;;;;10.40;99.90;;;;;;5028461;28;19920;-73
2021/12/28 03:35:41;;;;;;;;;;;10.40;99.90;;;;;;5056477;28;19928;-73
2021/12/28 03:38:08;;;;;;;;;;;10.40;99.90;;;;;;5026912;28;20802;-73
2021/12/28 03:40:36;;;;;;;;;;;10.50;99.90;;;;;;5028444;28;19948;-72
2021/12/28 03:43:03;;;;;;;;;;;10.50;99.90;;;;;;5027192;28;19928;-72
2021/12/28 03:45:31;;;;;;;;;;;10.50;99.90;;;;;;5028272;28;19948;-72
2021/12/28 03:47:59;;;;;;;;;;;10.50;99.90;;;;;;5028057;28;19935;-73
2021/12/28 03:50:26;;;;;;;;;;;10.50;99.90;;;;;;5059975;28;20312;-72
2021/12/28 03:52:54;;;;;;;;;;;10.50;99.90;;;;;;5018517;28;19925;-73
2021/12/28 03:55:23;;;;;;;;;;;10.50;99.90;;;;;;5007371;28;19925;-73
2021/12/28 03:57:51;;;;;;;;;;;10.50;99.90;;;;;;5006946;28;19929;-73
2021/12/28 04:00:19;;;;;;;;;;;10.50;99.90;;;;;;5009172;28;19921;-73
2021/12/28 04:02:47;;;;;;;;;;;10.50;99.90;;;;;;5042850;28;19925;-73
2021/12/28 04:05:16;;;;;;;;;;;10.50;99.90;;;;;;5008455;28;20610;-73
2021/12/28 04:07:44;;;;;;;;;;;10.50;99.90;;;;;;5027536;28;19925;-73
2021/12/28 04:10:12;;;;;;;;;;;10.50;99.90;;;;;;5027642;28;20380;-73
2021/12/28 04:12:40;;;;;;;;;;;10.50;99.90;;;;;;5059865;28;20583;-74
2021/12/28 04:15:08;;;;;;;;;;;10.50;99.90;;;;;;5027724;28;20289;-72
2021/12/28 04:17:37;;;;;;;;;;;10.50;99.90;;;;;;5025877;28;19929;-72
2021/12/28 04:20:08;;;;;;;;;;;10.50;99.90;;;;;;5025405;28;19924;-72
2021/12/28 04:22:35;;;;;;;;;;;10.50;99.90;;;;;;5026763;28;20293;-73
2021/12/28 04:25:04;;;;;;;;;;;10.40;99.90;;;;;;5010262;28;20393;-73
2021/12/28 04:27:31;;;;;;;;;;;10.40;99.90;;;;;;5009483;28;19921;-73
2021/12/28 04:29:59;;;;;;;;;;;10.40;99.90;;;;;;5059244;28;20106;-72
2021/12/28 04:32:26;;;;;;;;;;;10.40;99.90;;;;;;5026547;28;19987;-73
2021/12/28 04:34:54;;;;;;;;;;;10.40;99.90;;;;;;5058847;28;19932;-72
2021/12/28 04:37:23;;;;;;;;;;;10.40;99.90;;;;;;5025639;28;19928;-73
2021/12/28 04:39:51;;;;;;;;;;;10.30;99.90;;;;;;5027377;28;19921;-73
2021/12/28 04:42:20;;;;;;;;;;;10.30;99.90;;;;;;5027500;28;19929;-73
2021/12/28 04:44:50;;;;;;;;;;;10.20;99.90;;;;;;5026891;28;20377;-72
2021/12/28 04:47:17;;;;;;;;;;;10.10;99.90;;;;;;5007394;28;19925;-73
2021/12/28 04:49:46;;;;;;;;;;;10.10;99.90;;;;;;5006053;28;19933;-72
2021/12/28 04:52:14;;;;;;;;;;;10.00;99.90;;;;;;5007347;28;19925;-74
2021/12/28 04:54:42;;;;;;;;;;;9.90;99.90;;;;;;5005964;28;19921;-73
2021/12/28 04:57:09;;;;;;;;;;;9.90;99.90;;;;;;5006149;28;19929;-73
2021/12/28 04:59:37;;;;;;;;;;;9.90;99.90;;;;;;5007168;28;19929;-73
2021/12/28 05:02:04;;;;;;;;;;;9.90;99.90;;;;;;5027053;28;19932;-73
2021/12/28 05:04:32;;;;;;;;;;;9.90;99.90;;;;;;5041975;28;19925;-73
2021/12/28 05:06:59;;;;;;;;;;;9.80;99.90;;;;;;5023131;28;20547;-73
2021/12/28 05:09:27;;;;;;;;;;;9.80;99.90;;;;;;5041569;28;19925;-73
2021/12/28 05:11:54;;;;;;;;;;;9.90;99.90;;;;;;5025703;28;19932;-73
2021/12/28 05:14:22;;;;;;;;;;;9.90;99.90;;;;;;5025681;28;19932;-73
2021/12/28 05:16:49;;;;;;;;;;;9.90;99.90;;;;;;5024773;28;19929;-73
2021/12/28 05:19:17;;;;;;;;;;;10.00;99.90;;;;;;5025395;28;20468;-73
2021/12/28 05:21:45;;;;;;;;;;;10.00;99.90;;;;;;5041897;28;19952;-73
2021/12/28 05:24:13;;;;;;;;;;;10.00;99.90;;;;;;5058392;28;19924;-74
2021/12/28 05:26:40;;;;;;;;;;;10.00;99.90;;;;;;5026930;28;19925;-72
2021/12/28 05:29:08;;;;;;;;;;;10.00;99.90;;;;;;5026857;28;19920;-73
2021/12/28 05:31:35;;;;;;;;;;;10.00;99.90;;;;;;5041676;28;19925;-73
2021/12/28 05:34:07;;;;;;;;;;;10.00;99.90;;;;;;5039978;28;20308;-72
2021/12/28 05:36:35;;;;;;;;;;;10.00;99.90;;;;;;5025528;28;19946;-73
2021/12/28 05:39:04;;;;;;;;;;;10.00;99.90;;;;;;5026739;28;19925;-72
2021/12/28 05:41:31;;;;;;;;;;;10.10;99.90;;;;;;5013970;28;19928;-73
2021/12/28 05:43:59;;;;;;;;;;;10.10;99.90;;;;;;5013855;28;19925;-73
2021/12/28 05:46:26;;;;;;;;;;;10.10;99.90;;;;;;5026726;28;19928;-73
2021/12/28 05:48:54;;;;;;;;;;;10.10;99.90;;;;;;5057506;28;19996;-72
2021/12/28 05:51:21;;;;;;;;;;;10.10;99.90;;;;;;5025948;28;19925;-72
2021/12/28 05:53:49;;;;;;;;;;;10.10;99.90;;;;;;5025808;28;19947;-72
2021/12/28 05:56:17;;;;;;;;;;;10.10;99.90;;;;;;5025819;28;19925;-72
2021/12/28 05:58:45;;;;;;;;;;;10.10;99.90;;;;;;5021026;28;19949;-72
2021/12/28 06:01:12;;;;;;;;;;;10.10;99.90;;;;;;5019394;28;19925;-72
2021/12/28 06:03:40;;;;;;;;;;;10.10;99.90;;;;;;5026095;28;19925;-73
2021/12/28 06:06:08;;;;;;;;;;;10.10;99.90;;;;;;5024031;28;19925;-73
2021/12/28 06:08:35;;;;;;;;;;;10.10;99.90;;;;;;5025508;28;19925;-73
2021/12/28 06:11:05;;;;;;;;;;;10.10;99.90;;;;;;5025928;28;20557;-73
2021/12/28 06:13:33;;;;;;;;;;;10.10;99.90;;;;;;5007816;28;20317;-73
2021/12/28 06:16:00;;;;;;;;;;;10.10;99.90;;;;;;5025606;28;19936;-73
2021/12/28 06:18:28;;;;;;;;;;;10.10;99.90;;;;;;5025951;28;20001;-74
2021/12/28 06:20:56;;;;;;;;;;;10.10;99.90;;;;;;5024329;28;20366;-73
2021/12/28 06:23:23;;;;;;;;;;;10.10;99.90;;;;;;5025643;28;19921;-73
2021/12/28 06:25:51;;;;;;;;;;;10.10;99.90;;;;;;5024252;28;20404;-73
2021/12/28 06:28:19;;;;;;;;;;;10.00;99.90;;;;;;5027039;28;19921;-74
2021/12/28 06:30:46;;;;;;;;;;;10.10;99.90;;;;;;5008006;28;20438;-73
2021/12/28 06:33:15;;;;;;;;;;;10.10;99.90;;;;;;5009431;28;19925;-73
2021/12/28 06:35:43;;;;;;;;;;;10.10;99.90;;;;;;5040849;28;19936;-72
2021/12/28 06:38:10;;;;;;;;;;;10.10;99.90;;;;;;5009284;28;20628;-73
2021/12/28 06:40:37;;;;;;;;;;;10.10;99.90;;;;;;5040789;28;19925;-73
2021/12/28 06:43:05;;;;;;;;;;;10.10;99.90;;;;;;5007813;28;19933;-73
2021/12/28 06:45:32;;;;;;;;;;;10.10;99.90;;;;;;5009305;28;19929;-72
2021/12/28 06:48:00;;;;;;;;;;;10.10;99.90;;;;;;5009289;28;20135;-72
2021/12/28 06:50:27;;;;;;;;;;;10.00;99.90;;;;;;5009045;28;19954;-72
2021/12/28 06:52:55;;;;;;;;;;;10.00;99.90;;;;;;5040272;28;19933;-72
2021/12/28 06:55:23;;;;;;;;;;;10.00;99.90;;;;;;5009445;28;19932;-73
2021/12/28 06:57:50;;;;;;;;;;;10.00;99.90;;;;;;5017334;28;19925;-75
2021/12/28 07:00:21;;;;;;;;;;;10.00;99.90;;;;;;5028451;28;19932;-72
2021/12/28 07:02:48;;;;;;;;;;;10.00;99.90;;;;;;5026446;28;19921;-72
2021/12/28 07:05:16;;;;;;;;;;;10.10;99.90;;;;;;5023796;28;19925;-73
2021/12/28 07:07:44;;;;;;;;;;;10.10;99.90;;;;;;5027306;28;19925;-73
2021/12/28 07:10:11;;;;;;;;;;;10.10;99.90;;;;;;5024733;28;19932;-74
2021/12/28 07:12:39;;;;;;;;;;;10.10;99.90;;;;;;5027617;28;19929;-74
2021/12/28 07:15:06;;;;;;;;;;;10.10;99.90;;;;;;5027212;28;20393;-74
2021/12/28 07:17:34;;;;;;;;;;;10.10;99.90;;;;;;5060068;28;19936;-74
2021/12/28 07:20:02;;;;;;;;;;;10.10;99.90;;;;;;5028015;28;19925;-74
2021/12/28 07:22:30;;;;;;;;;;;10.10;99.90;;;;;;5028249;28;19925;-74
2021/12/28 07:24:57;;;;;;;;;;;10.20;99.90;;;;;;5028463;28;20274;-74
2021/12/28 07:27:25;;;;;;;;;;;10.20;99.90;;;;;;5023243;28;19936;-74
2021/12/28 07:29:52;;;;;;;;;;;10.20;99.90;;;;;;5039687;28;19925;-74
2021/12/28 07:32:20;;;;;;;;;;;10.20;99.90;;;;;;5013504;28;19925;-74
2021/12/28 07:34:47;;;;;;;;;;;10.20;99.90;;;;;;5027350;28;19949;-73
2021/12/28 07:37:15;;;;;;;;;;;10.20;99.90;;;;;;5023371;28;19925;-75
2021/12/28 07:39:42;;;;;;;;;;;10.20;99.90;;;;;;5018145;28;19929;-74
2021/12/28 07:42:10;;;;;;;;;;;10.20;99.90;;;;;;5025887;28;19928;-74
2021/12/28 07:44:37;;;;;;;;;;;10.20;99.90;;;;;;5025236;28;19952;-75
2021/12/28 07:47:05;;;;;;;;;;;10.20;99.90;;;;;;5051064;28;19932;-74
2021/12/28 07:49:33;;;;;;;;;;;10.20;99.90;;;;;;5024519;28;19929;-74
2021/12/28 07:52:00;;;;;;;;;;;10.20;99.90;;;;;;5025751;28;20611;-74
2021/12/28 07:54:28;;;;;;;;;;;10.20;99.90;;;;;;5025182;28;19925;-75
2021/12/28 07:56:55;;;;;;;;;;;10.20;99.90;;;;;;5022153;28;19925;-74
2021/12/28 07:59:23;;;;;;;;;;;10.20;99.90;;;;;;5038078;28;19925;-73
2021/12/28 08:01:50;;;;;;;;;;;10.10;99.90;;;;;;5037928;28;19925;-76
2021/12/28 08:04:18;;;;;;;;;;;10.10;99.90;;;;;;5019751;28;19996;-73
2021/12/28 08:06:46;;;;;;;;;;;10.00;99.90;;;;;;5027118;28;19924;-73
2021/12/28 08:09:13;;;;;;;;;;;9.90;99.90;;;;;;5027487;28;19921;-76
2021/12/28 08:11:42;;;;;;;;;;;9.90;99.90;;;;;;5026386;28;19925;-74
2021/12/28 08:14:10;;;;;;;;;;;9.90;99.90;;;;;;5025126;28;19924;-73
2021/12/28 08:16:37;;;;;;;;;;;9.90;99.90;;;;;;5006542;28;19925;-74
2021/12/28 08:19:06;;;;;;;;;;;9.90;99.90;;;;;;5022519;28;19925;-73
2021/12/28 08:21:44;;;;;;;;;;;9.90;99.90;;;;;;5025072;28;20292;-75
2021/12/28 08:24:12;;;;;;;;;;;9.90;99.90;;;;;;5023950;28;19924;-74
2021/12/28 08:26:39;;;;;;;;;;;9.90;99.90;;;;;;5027339;28;19925;-75
2021/12/28 08:29:07;;;;;;;;;;;9.90;99.90;;;;;;5026565;28;20594;-74
2021/12/28 08:31:35;;;;;;;;;;;9.90;99.90;;;;;;5025778;28;19921;-73
2021/12/28 08:34:03;;;;;;;;;;;9.90;99.90;;;;;;5007872;28;20437;-73
2021/12/28 08:36:30;;;;;;;;;;;9.90;99.90;;;;;;5034874;28;19949;-73
2021/12/28 08:38:58;;;;;;;;;;;9.90;99.90;;;;;;5019078;28;19932;-73
2021/12/28 08:41:25;;;;;;;;;;;9.80;99.90;;;;;;5021789;28;19925;-73
2021/12/28 08:43:53;;;;;;;;;;;9.70;99.90;;;;;;5036949;28;19922;-72
2021/12/28 08:46:21;;;;;;;;;;;9.60;99.90;;;;;;5040533;28;19921;-73
2021/12/28 08:48:51;;;;;;;;;;;9.40;99.90;;;;;;5013921;28;19929;-86
2021/12/28 08:51:18;;;;;;;;;;;9.40;99.90;;;;;;5018570;28;19925;-79
2021/12/28 08:53:46;;;;;;;;;;;9.40;99.90;;;;;;5016547;28;19921;-80
2021/12/28 08:56:14;;;;;;;;;;;9.40;99.90;;;;;;4995785;28;19921;-80
2021/12/28 08:58:41;;;;;;;;;;;9.40;99.90;;;;;;5022363;28;20403;-75
2021/12/28 09:01:09;;;;;;;;;;;9.50;99.90;;;;;;5018060;28;19925;-82
2021/12/28 09:03:37;;;;;;;;;;;9.60;99.90;;;;;;5010572;28;20472;-80
2021/12/28 09:06:05;;;;;;;;;;;9.60;99.90;;;;;;5021333;28;20341;-83
2021/12/28 09:08:33;;;;;;;;;;;9.70;99.90;;;;;;5023072;28;20312;-82
2021/12/28 09:11:01;;;;;;;;;;;9.70;99.90;;;;;;5025127;28;19929;-74
2021/12/28 09:13:28;;;;;;;;;;;9.70;99.90;;;;;;5025285;28;19932;-75
2021/12/28 09:15:56;;;;;;;;;;;9.70;99.90;;;;;;5025070;28;19932;-74
2021/12/28 09:18:23;;;;;;;;;;;9.70;99.90;;;;;;5009095;28;19925;-75
2021/12/28 09:20:51;;;;;;;;;;;9.70;99.90;;;;;;5005189;28;19936;-76
2021/12/28 09:23:19;;;;;;;;;;;9.70;99.90;;;;;;5005122;28;20409;-75
2021/12/28 09:26:06;;;;;;;;;;;9.60;99.90;;;;;;5017726;28;19929;-75
2021/12/28 09:28:34;;;;;;;;;;;9.50;99.90;;;;;;5020699;28;19925;-74
2021/12/28 09:31:02;;;;;;;;;;;9.40;99.90;;;;;;5024854;28;20407;-73
2021/12/28 09:33:30;;;;;;;;;;;9.30;99.90;;;;;;5024788;28;19921;-77
2021/12/28 09:35:57;;;;;;;;;;;9.20;99.90;;;;;;5026033;28;19948;-74
2021/12/28 09:38:25;;;;;;;;;;;9.10;99.90;;;;;;5024239;28;19925;-74
2021/12/28 09:40:53;;;;;;;;;;;9.10;99.90;;;;;;5038614;28;20309;-78
2021/12/28 09:43:21;;;;;;;;;;;9.00;99.90;;;;;;5020088;28;19929;-77
2021/12/28 09:45:49;;;;;;;;;;;9.00;99.90;;;;;;5021140;28;20313;-77
2021/12/28 09:48:16;;;;;;;;;;;8.90;99.90;;;;;;5024108;28;19929;-77
2021/12/28 09:50:44;;;;;;;;;;;8.90;99.90;;;;;;5006632;28;19925;-77
2021/12/28 09:53:12;;;;;;;;;;;8.90;99.90;;;;;;5024436;28;19929;-77
2021/12/28 09:55:40;;;;;;;;;;;8.80;99.90;;;;;;5007814;28;20428;-77
2021/12/28 09:58:08;;;;;;;;;;;8.80;99.90;;;;;;5039513;28;19925;-76
2021/12/28 10:00:55;;;;;;;;;;;8.80;99.90;;;;;;5003782;28;19925;-76
2021/12/28 10:03:23;;;;;;;;;;;8.80;99.90;;;;;;5007632;28;19925;-74
2021/12/28 10:05:50;;;;;;;;;;;8.80;99.90;;;;;;5014746;28;19932;-75
2021/12/28 10:08:22;;;;;;;;;;;8.80;99.90;;;;;;5014375;28;19928;-76
2021/12/28 10:10:54;;;;;;;;;;;8.80;99.90;;;;;;5010132;28;19933;-76
2021/12/28 10:13:29;;;;;;;;;;;8.90;99.90;;;;;;5028322;28;19932;-75
2021/12/28 10:15:56;;;;;;;;;;;8.90;99.90;;;;;;5027862;28;19925;-75
2021/12/28 10:18:24;;;;;;;;;;;9.00;99.90;;;;;;5015741;28;20409;-76
2021/12/28 10:20:53;;;;;;;;;;;9.10;99.90;;;;;;5007782;28;19928;-76
2021/12/28 10:23:21;;;;;;;;;;;9.20;99.90;;;;;;5023836;28;20573;-74
2021/12/28 10:25:50;;;;;;;;;;;9.20;99.90;;;;;;5008044;28;19932;-76
2021/12/28 10:28:20;;;;;;;;;;;9.30;99.90;;;;;;5008440;28;19921;-76
2021/12/28 10:30:54;;;;;;;;;;;9.30;99.90;;;;;;5007018;28;19955;-75
2021/12/28 10:33:24;;;;;;;;;;;9.30;99.90;;;;;;5006842;28;19930;-77
2021/12/28 10:35:56;;;;;;;;;;;9.30;99.90;;;;;;5008003;28;20393;-73
2021/12/28 10:38:27;;;;;;;;;;;9.30;99.90;;;;;;5008418;28;19925;-77
2021/12/28 10:40:56;;;;;;;;;;;9.30;99.90;;;;;;5007988;28;20305;-74
2021/12/28 10:43:25;;;;;;;;;;;9.30;99.90;;;;;;5009131;28;20439;-77
2021/12/28 10:45:59;;;;;;;;;;;9.30;99.90;;;;;;5009321;28;19929;-74
2021/12/28 10:48:55;;;;;;;;;;;9.30;99.90;;;;;;5008657;28;19925;-75
2021/12/28 10:51:26;;;;;;;;;;;9.20;99.90;;;;;;5040754;28;19928;-80
2021/12/28 10:54:07;;;;;;;;;;;9.10;99.90;;;;;;5014715;28;19925;-74
2021/12/28 10:56:39;;;;;;;;;;;8.90;99.90;;;;;;5024692;28;19933;-74
2021/12/28 10:59:07;;;;;;;;;;;8.80;99.90;;;;;;5016561;28;19929;-73
2021/12/28 11:01:38;;;;;;;;;;;8.80;99.90;;;;;;5027655;28;19925;-72
2021/12/28 11:04:09;;;;;;;;;;;8.70;99.90;;;;;;5025923;28;19929;-73
2021/12/28 11:06:38;;;;;;;;;;;8.70;99.90;;;;;;5013426;28;19921;-74
2021/12/28 11:09:07;;;;;;;;;;;8.60;99.90;;;;;;5026203;28;20431;-74
2021/12/28 11:11:35;;;;;;;;;;;8.60;99.90;;;;;;4998633;28;19925;-75
2021/12/28 11:14:05;;;;;;;;;;;8.50;99.90;;;;;;5009048;28;19956;-81
2021/12/28 11:16:33;;;;;;;;;;;8.50;99.90;;;;;;5021776;28;20336;-78
2021/12/28 11:19:03;;;;;;;;;;;8.50;99.90;;;;;;5024508;28;20274;-77
2021/12/28 11:21:31;;;;;;;;;;;8.50;99.90;;;;;;5009246;28;20294;-75
2021/12/28 11:24:07;;;;;;;;;;;8.40;99.90;;;;;;5026006;28;20660;-77
2021/12/28 11:26:46;;;;;;;;;;;8.50;99.90;;;;;;5007491;28;19925;-77
2021/12/28 11:29:15;;;;;;;;;;;8.50;99.90;;;;;;5025929;28;19921;-75
2021/12/28 11:31:45;;;;;;;;;;;8.50;99.90;;;;;;5024957;28;19929;-77
2021/12/28 11:34:12;;;;;;;;;;;8.60;99.90;;;;;;5025248;28;19925;-75
2021/12/28 11:36:43;;;;;;;;;;;8.60;99.90;;;;;;5027605;28;19925;-77
2021/12/28 11:39:13;;;;;;;;;;;8.70;99.90;;;;;;5026617;28;21941;-77
2021/12/28 11:41:41;;;;;;;;;;;8.70;99.90;;;;;;5020156;28;19925;-78
2021/12/28 11:44:09;;;;;;;;;;;8.80;99.90;;;;;;5043568;28;19932;-76
2021/12/28 11:46:36;;;;;;;;;;;8.90;99.90;;;;;;5023355;28;20361;-76
2021/12/28 11:49:06;;;;;;;;;;;9.00;99.90;;;;;;5041435;28;19925;-75
2021/12/28 11:51:34;;;;;;;;;;;9.10;99.90;;;;;;5022374;28;20408;-76
2021/12/28 11:54:07;;;;;;;;;;;9.10;99.90;;;;;;5025675;28;20604;-75
2021/12/28 11:56:38;;;;;;;;;;;9.20;99.90;;;;;;5027014;28;19925;-74
2021/12/28 11:59:09;;;;;;;;;;;9.20;99.90;;;;;;5025624;28;19924;-75
2021/12/28 12:01:37;;;;;;;;;;;9.30;99.90;;;;;;5025671;28;19921;-75
2021/12/28 12:04:24;;;;;;;;;;;9.30;99.90;;;;;;5008806;28;20435;-75
2021/12/28 12:07:15;;;;;;;;;;;9.40;99.90;;;;;;5025633;28;19943;-75
2021/12/28 12:09:49;;;;;;;;;;;9.40;99.90;;;;;;5024961;28;19929;-74
2021/12/28 12:12:26;;;;;;;;;;;9.50;99.90;;;;;;5021520;28;19933;-78
2021/12/28 12:15:01;;;;;;;;;;;9.50;99.90;;;;;;5027383;28;19924;-72
2021/12/28 12:17:29;;;;;;;;;;;9.60;99.90;;;;;;5027378;28;19920;-73
2021/12/28 12:19:56;;;;;;;;;;;9.70;99.90;;;;;;5026645;28;19921;-74
2021/12/28 12:22:30;;;;;;;;;;;9.80;99.90;;;;;;5025079;28;19925;-72
2021/12/28 12:25:06;;;;;;;;;;;9.90;99.90;;;;;;5026955;28;20445;-73
2021/12/28 12:27:49;;;;;;;;;;;9.90;99.90;;;;;;5026879;28;19925;-73
2021/12/28 12:30:16;;;;;;;;;;;9.90;99.90;;;;;;5025945;28;20373;-72
2021/12/28 12:33:05;;;;;;;;;;;10.00;99.90;;;;;;5027054;28;20313;-73
2021/12/28 12:35:36;;;;;;;;;;;10.00;99.90;;;;;;5025083;28;19929;-72
2021/12/28 12:38:27;;;;;;;;;;;10.00;99.90;;;;;;5058419;28;19925;-73
2021/12/28 12:41:06;;;;;;;;;;;10.10;99.90;;;;;;5025439;28;19976;-73
2021/12/28 12:43:40;;;;;;;;;;;10.10;99.90;;;;;;5014738;28;19926;-73
2021/12/28 12:46:26;;;;;;;;;;;10.20;99.90;;;;;;5022235;28;19926;-73
2021/12/28 12:48:54;;;;;;;;;;;10.20;99.90;;;;;;5010777;28;19932;-72
2021/12/28 12:51:26;;;;;;;;;;;10.20;99.90;;;;;;4994452;28;20275;-72
2021/12/28 12:54:06;;;;;;;;;;;10.20;99.90;;;;;;5026131;28;19925;-73
2021/12/28 12:56:36;;;;;;;;;;;10.30;99.90;;;;;;5026032;28;19932;-73
2021/12/28 12:59:05;;;;;;;;;;;10.30;99.90;;;;;;5023510;28;19951;-73
2021/12/28 13:01:39;;;;;;;;;;;10.40;99.90;;;;;;5026118;28;19936;-73
2021/12/28 13:04:26;;;;;;;;;;;10.40;99.90;;;;;;5025099;28;19925;-74
2021/12/28 13:07:01;;;;;;;;;;;10.50;99.90;;;;;;5025675;28;19956;-73
2021/12/28 13:09:29;;;;;;;;;;;10.60;99.90;;;;;;5018822;28;20460;-73
2021/12/28 13:12:01;;;;;;;;;;;10.70;99.90;;;;;;5043063;28;19929;-72
2021/12/28 13:14:30;;;;;;;;;;;10.80;99.90;;;;;;5018257;28;19925;-71
2021/12/28 13:16:59;;;;;;;;;;;10.90;99.90;;;;;;5005598;28;19925;-72
2021/12/28 13:19:27;;;;;;;;;;;11.00;99.90;;;;;;5004801;28;20409;-72
2021/12/28 13:22:03;;;;;;;;;;;11.10;99.90;;;;;;5021540;28;19925;-73
2021/12/28 13:24:31;;;;;;;;;;;11.10;99.90;;;;;;5006421;28;19932;-73
2021/12/28 13:27:01;;;;;;;;;;;11.20;99.90;;;;;;5005788;28;20391;-72
2021/12/28 13:29:30;;;;;;;;;;;11.20;99.90;;;;;;5006612;28;19928;-72
2021/12/28 13:32:16;;;;;;;;;;;11.20;99.90;;;;;;5005520;28;20525;-71
2021/12/28 13:34:59;;;;;;;;;;;11.30;99.90;;;;;;5004695;28;19926;-72
2021/12/28 13:37:28;;;;;;;;;;;11.30;99.90;;;;;;5037570;28;19925;-73
2021/12/28 13:39:59;;;;;;;;;;;11.30;99.90;;;;;;5006641;28;19926;-73
2021/12/28 13:42:27;;;;;;;;;;;11.30;99.90;;;;;;5017108;28;19925;-73
2021/12/28 13:44:55;;;;;;;;;;;11.30;99.90;;;;;;5028639;28;19925;-74
2021/12/28 13:47:22;;;;;;;;;;;11.30;99.90;;;;;;5026494;28;19925;-74
2021/12/28 13:50:22;;;;;;;;;;;11.40;99.90;;;;;;5027121;28;20560;-74
2021/12/28 13:52:54;;;;;;;;;;;11.40;99.90;;;;;;5007266;28;20364;-74
2021/12/28 13:55:29;;;;;;;;;;;11.60;99.90;;;;;;5029355;28;19925;-73
2021/12/28 13:57:57;;;;;;;;;;;11.70;99.90;;;;;;5020724;28;19929;-73
2021/12/28 14:00:26;;;;;;;;;;;11.80;99.90;;;;;;5009886;28;19925;-73
2021/12/28 14:02:55;;;;;;;;;;;11.90;99.90;;;;;;5008086;28;19932;-74
2021/12/28 14:05:24;;;;;;;;;;;11.90;99.90;;;;;;5027674;28;19925;-73
2021/12/28 14:07:51;;;;;;;;;;;11.90;99.90;;;;;;5026528;28;20293;-74
2021/12/28 14:10:19;;;;;;;;;;;11.90;99.90;;;;;;5040724;28;20305;-74
2021/12/28 14:13:04;;;;;;;;;;;11.80;99.90;;;;;;5013180;28;19932;-73
2021/12/28 14:15:50;;;;;;;;;;;11.70;99.90;;;;;;5011644;28;19924;-73
2021/12/28 14:18:21;;;;;;;;;;;11.70;99.90;;;;;;5028911;28;19920;-72
2021/12/28 14:20:49;;;;;;;;;;;11.60;99.90;;;;;;5021162;28;19926;-74
2021/12/28 14:23:29;;;;;;;;;;;11.60;99.90;;;;;;5013959;28;20374;-72
2021/12/28 14:26:04;;;;;;;;;;;11.50;99.90;;;;;;5006043;28;20569;-72
2021/12/28 14:28:31;;;;;;;;;;;11.50;99.90;;;;;;5021687;28;19936;-73
2021/12/28 14:31:09;;;;;;;;;;;11.40;99.90;;;;;;5028631;28;20432;-72
2021/12/28 14:33:50;;;;;;;;;;;11.40;99.90;;;;;;5027248;28;19928;-74
2021/12/28 14:36:19;;;;;;;;;;;11.40;99.90;;;;;;5010491;28;19924;-74